sensor_id;sensor_type;location;lat;lon;timestamp;pressure;altitude;pressure_sealevel;temperature;humidity
47742;BME280;33504;52.066;6.096;2023-05-21T00:02:19;101846.34;;;18.45;36.34
47742;BME280;33504;52.066;6.096;2023-05-21T00:04:46;101848.68;;;18.42;36.34
47742;BME280;33504;52.066;6.096;2023-05-21T00:07:13;101847.80;;;18.38;36.60
47742;BME280;33504;52.066;6.096;2023-05-21T00:09:40;101846.84;;;18.44;36.53
47742;BME280;33504;52.066;6.096;2023-05-21T00:12:07;101844.57;;;18.45;36.42
47742;BME280;33504;52.066;6.096;2023-05-21T00:14:35;101844.89;;;18.46;36.44
47742;BME280;33504;52.066;6.096;2023-05-21T00:17:02;101841.58;;;18.46;36.56
47742;BME280;33504;52.066;6.096;2023-05-21T00:19:29;101839.59;;;18.42;36.65
47742;BME280;33504;52.066;6.096;2023-05-21T00:21:56;101838.71;;;18.42;36.61
47742;BME280;33504;52.066;6.096;2023-05-21T00:24:23;101835.00;;;18.57;36.67
47742;BME280;33504;52.066;6.096;2023-05-21T00:26:50;101832.47;;;18.58;36.67
47742;BME280;33504;52.066;6.096;2023-05-21T00:29:17;101827.84;;;18.32;36.78
47742;BME280;33504;52.066;6.096;2023-05-21T00:31:43;101826.16;;;18.33;36.81
47742;BME280;33504;52.066;6.096;2023-05-21T00:34:12;101825.07;;;18.51;36.95
47742;BME280;33504;52.066;6.096;2023-05-21T00:36:38;101822.32;;;18.32;36.93
47742;BME280;33504;52.066;6.096;2023-05-21T00:39:05;101818.58;;;18.31;36.99
47742;BME280;33504;52.066;6.096;2023-05-21T00:41:32;101816.28;;;18.29;37.11
47742;BME280;33504;52.066;6.096;2023-05-21T00:43:58;101817.15;;;18.30;36.99
47742;BME280;33504;52.066;6.096;2023-05-21T00:46:25;101815.61;;;18.29;37.15
47742;BME280;33504;52.066;6.096;2023-05-21T00:48:53;101814.61;;;18.29;37.15
47742;BME280;33504;52.066;6.096;2023-05-21T00:51:20;101811.12;;;18.26;37.30
47742;BME280;33504;52.066;6.096;2023-05-21T00:53:49;101810.66;;;18.27;37.35
47742;BME280;33504;52.066;6.096;2023-05-21T00:56:18;101809.48;;;18.25;37.37
47742;BME280;33504;52.066;6.096;2023-05-21T00:58:45;101806.98;;;18.22;37.45
47742;BME280;33504;52.066;6.096;2023-05-21T01:01:13;101810.44;;;18.41;37.50
47742;BME280;33504;52.066;6.096;2023-05-21T01:03:41;101809.42;;;18.16;37.63
47742;BME280;33504;52.066;6.096;2023-05-21T01:06:09;101806.50;;;18.36;37.69
47742;BME280;33504;52.066;6.096;2023-05-21T01:08:37;101811.14;;;18.32;37.66
47742;BME280;33504;52.066;6.096;2023-05-21T01:11:05;101809.76;;;18.09;37.71
47742;BME280;33504;52.066;6.096;2023-05-21T01:13:36;101808.35;;;18.28;37.88
47742;BME280;33504;52.066;6.096;2023-05-21T01:16:05;101807.84;;;18.27;37.90
47742;BME280;33504;52.066;6.096;2023-05-21T01:18:33;101805.10;;;18.30;37.89
47742;BME280;33504;52.066;6.096;2023-05-21T01:21:01;101801.53;;;18.08;37.98
47742;BME280;33504;52.066;6.096;2023-05-21T01:23:28;101799.45;;;18.05;37.97
47742;BME280;33504;52.066;6.096;2023-05-21T01:25:56;101797.11;;;18.26;37.98
47742;BME280;33504;52.066;6.096;2023-05-21T01:28:22;101795.82;;;18.00;38.14
47742;BME280;33504;52.066;6.096;2023-05-21T01:30:49;101794.18;;;18.47;38.13
47742;BME280;33504;52.066;6.096;2023-05-21T01:33:20;101793.75;;;18.00;38.22
47742;BME280;33504;52.066;6.096;2023-05-21T01:35:55;101794.43;;;18.01;38.22
47742;BME280;33504;52.066;6.096;2023-05-21T01:38:30;101791.75;;;18.01;38.31
47742;BME280;33504;52.066;6.096;2023-05-21T01:41:01;101789.14;;;18.01;38.33
47742;BME280;33504;52.066;6.096;2023-05-21T01:43:32;101786.88;;;18.03;38.29
47742;BME280;33504;52.066;6.096;2023-05-21T01:46:01;101786.77;;;18.03;38.36
47742;BME280;33504;52.066;6.096;2023-05-21T01:48:29;101785.38;;;18.27;38.35
47742;BME280;33504;52.066;6.096;2023-05-21T01:51:00;101785.55;;;18.00;38.49
47742;BME280;33504;52.066;6.096;2023-05-21T01:53:28;101784.42;;;18.47;38.46
47742;BME280;33504;52.066;6.096;2023-05-21T01:55:55;101780.51;;;18.07;38.42
47742;BME280;33504;52.066;6.096;2023-05-21T01:58:22;101777.55;;;18.32;38.50
47742;BME280;33504;52.066;6.096;2023-05-21T02:00:49;101774.74;;;18.33;38.44
47742;BME280;33504;52.066;6.096;2023-05-21T02:03:17;101773.06;;;18.14;38.53
47742;BME280;33504;52.066;6.096;2023-05-21T02:05:44;101774.56;;;18.13;38.40
47742;BME280;33504;52.066;6.096;2023-05-21T02:08:12;101776.53;;;18.13;38.51
47742;BME280;33504;52.066;6.096;2023-05-21T02:10:39;101773.53;;;18.16;38.36
47742;BME280;33504;52.066;6.096;2023-05-21T02:13:07;101772.56;;;18.20;38.38
47742;BME280;33504;52.066;6.096;2023-05-21T02:15:33;101769.68;;;18.40;38.49
47742;BME280;33504;52.066;6.096;2023-05-21T02:18:00;101768.93;;;18.07;38.72
47742;BME280;33504;52.066;6.096;2023-05-21T02:20:27;101767.11;;;18.11;38.55
47742;BME280;33504;52.066;6.096;2023-05-21T02:22:53;101766.66;;;18.14;38.44
47742;BME280;33504;52.066;6.096;2023-05-21T02:25:20;101765.88;;;18.36;38.54
47742;BME280;33504;52.066;6.096;2023-05-21T02:27:48;101761.95;;;18.39;38.52
47742;BME280;33504;52.066;6.096;2023-05-21T02:30:15;101761.72;;;18.42;38.50
47742;BME280;33504;52.066;6.096;2023-05-21T02:32:42;101761.08;;;18.19;38.55
47742;BME280;33504;52.066;6.096;2023-05-21T02:35:10;101762.16;;;18.40;38.49
47742;BME280;33504;52.066;6.096;2023-05-21T02:37:39;101759.11;;;18.16;38.57
47742;BME280;33504;52.066;6.096;2023-05-21T02:40:07;101759.03;;;18.39;38.55
47742;BME280;33504;52.066;6.096;2023-05-21T02:42:35;101761.99;;;18.55;38.72
47742;BME280;33504;52.066;6.096;2023-05-21T02:45:02;101763.24;;;18.36;38.69
47742;BME280;33504;52.066;6.096;2023-05-21T02:47:29;101761.66;;;18.10;38.63
47742;BME280;33504;52.066;6.096;2023-05-21T02:49:58;101763.13;;;18.35;38.69
47742;BME280;33504;52.066;6.096;2023-05-21T02:52:25;101760.20;;;18.11;38.75
47742;BME280;33504;52.066;6.096;2023-05-21T02:54:52;101759.53;;;18.09;38.81
47742;BME280;33504;52.066;6.096;2023-05-21T02:57:19;101755.84;;;18.31;38.78
47742;BME280;33504;52.066;6.096;2023-05-21T02:59:46;101752.07;;;18.26;38.87
47742;BME280;33504;52.066;6.096;2023-05-21T03:02:12;101753.10;;;18.05;38.89
47742;BME280;33504;52.066;6.096;2023-05-21T03:04:40;101751.54;;;18.28;38.95
47742;BME280;33504;52.066;6.096;2023-05-21T03:07:07;101753.70;;;18.05;38.88
47742;BME280;33504;52.066;6.096;2023-05-21T03:09:34;101750.77;;;18.05;38.86
47742;BME280;33504;52.066;6.096;2023-05-21T03:12:01;101747.23;;;18.26;38.99
47742;BME280;33504;52.066;6.096;2023-05-21T03:14:28;101750.51;;;17.99;39.05
47742;BME280;33504;52.066;6.096;2023-05-21T03:16:55;101752.92;;;17.96;39.14
47742;BME280;33504;52.066;6.096;2023-05-21T03:19:22;101751.80;;;17.95;39.18
47742;BME280;33504;52.066;6.096;2023-05-21T03:21:49;101748.48;;;17.91;39.20
47742;BME280;33504;52.066;6.096;2023-05-21T03:24:15;101746.51;;;18.16;39.19
47742;BME280;33504;52.066;6.096;2023-05-21T03:26:43;101744.46;;;17.93;39.16
47742;BME280;33504;52.066;6.096;2023-05-21T03:29:10;101742.15;;;18.37;39.13
47742;BME280;33504;52.066;6.096;2023-05-21T03:31:37;101740.45;;;17.82;39.34
47742;BME280;33504;52.066;6.096;2023-05-21T03:34:05;101739.50;;;18.08;39.25
47742;BME280;33504;52.066;6.096;2023-05-21T03:36:32;101740.82;;;17.84;39.31
47742;BME280;33504;52.066;6.096;2023-05-21T03:38:58;101740.53;;;18.04;39.37
47742;BME280;33504;52.066;6.096;2023-05-21T03:41:25;101743.82;;;18.01;39.33
47742;BME280;33504;52.066;6.096;2023-05-21T03:43:52;101743.56;;;17.96;39.46
47742;BME280;33504;52.066;6.096;2023-05-21T03:46:18;101741.83;;;17.92;39.60
47742;BME280;33504;52.066;6.096;2023-05-21T03:48:46;101743.49;;;17.65;39.59
47742;BME280;33504;52.066;6.096;2023-05-21T03:51:13;101744.16;;;18.09;39.70
47742;BME280;33504;52.066;6.096;2023-05-21T03:53:40;101744.11;;;17.57;39.80
47742;BME280;33504;52.066;6.096;2023-05-21T03:56:07;101742.32;;;17.73;39.94
47742;BME280;33504;52.066;6.096;2023-05-21T03:58:34;101745.15;;;17.70;40.01
47742;BME280;33504;52.066;6.096;2023-05-21T04:01:01;101743.07;;;17.88;40.13
47742;BME280;33504;52.066;6.096;2023-05-21T04:03:28;101741.87;;;17.81;40.10
47742;BME280;33504;52.066;6.096;2023-05-21T04:05:55;101741.56;;;17.76;40.00
47742;BME280;33504;52.066;6.096;2023-05-21T04:08:23;101746.06;;;17.65;39.94
47742;BME280;33504;52.066;6.096;2023-05-21T04:10:49;101745.20;;;17.84;39.60
47742;BME280;33504;52.066;6.096;2023-05-21T04:13:16;101744.75;;;17.48;39.60
47742;BME280;33504;52.066;6.096;2023-05-21T04:15:43;101750.08;;;17.41;39.57
47742;BME280;33504;52.066;6.096;2023-05-21T04:18:10;101751.13;;;17.35;39.55
47742;BME280;33504;52.066;6.096;2023-05-21T04:20:38;101756.40;;;17.28;39.60
47742;BME280;33504;52.066;6.096;2023-05-21T04:23:05;101757.15;;;17.20;39.82
47742;BME280;33504;52.066;6.096;2023-05-21T04:25:32;101753.82;;;17.63;40.25
47742;BME280;33504;52.066;6.096;2023-05-21T04:28:00;101758.20;;;17.15;40.16
47742;BME280;33504;52.066;6.096;2023-05-21T04:30:27;101763.73;;;17.14;40.20
47742;BME280;33504;52.066;6.096;2023-05-21T04:32:54;101764.34;;;17.09;40.18
47742;BME280;33504;52.066;6.096;2023-05-21T04:35:20;101768.93;;;17.36;40.51
47742;BME280;33504;52.066;6.096;2023-05-21T04:37:48;101769.11;;;17.36;40.73
47742;BME280;33504;52.066;6.096;2023-05-21T04:40:14;101766.81;;;17.08;41.19
47742;BME280;33504;52.066;6.096;2023-05-21T04:42:42;101768.89;;;17.09;41.38
47742;BME280;33504;52.066;6.096;2023-05-21T04:45:09;101772.42;;;17.11;41.54
47742;BME280;33504;52.066;6.096;2023-05-21T04:47:36;101774.03;;;17.10;41.62
47742;BME280;33504;52.066;6.096;2023-05-21T04:50:05;101772.29;;;17.40;41.67
47742;BME280;33504;52.066;6.096;2023-05-21T04:52:32;101767.31;;;17.42;41.64
47742;BME280;33504;52.066;6.096;2023-05-21T04:54:59;101764.06;;;17.20;41.70
47742;BME280;33504;52.066;6.096;2023-05-21T04:57:27;101760.11;;;17.50;41.65
47742;BME280;33504;52.066;6.096;2023-05-21T04:59:54;101762.08;;;17.26;41.75
47742;BME280;33504;52.066;6.096;2023-05-21T05:02:21;101763.55;;;17.30;41.82
47742;BME280;33504;52.066;6.096;2023-05-21T05:04:48;101763.05;;;17.14;42.18
47742;BME280;33504;52.066;6.096;2023-05-21T05:07:15;101762.54;;;17.15;42.17
47742;BME280;33504;52.066;6.096;2023-05-21T05:09:42;101760.39;;;17.15;42.30
47742;BME280;33504;52.066;6.096;2023-05-21T05:12:09;101758.62;;;17.57;42.13
47742;BME280;33504;52.066;6.096;2023-05-21T05:14:36;101758.37;;;17.31;42.18
47742;BME280;33504;52.066;6.096;2023-05-21T05:17:04;101755.12;;;17.40;42.06
47742;BME280;33504;52.066;6.096;2023-05-21T05:19:31;101757.40;;;17.42;42.13
47742;BME280;33504;52.066;6.096;2023-05-21T05:21:58;101755.08;;;17.34;42.42
47742;BME280;33504;52.066;6.096;2023-05-21T05:24:25;101749.02;;;16.97;42.80
47742;BME280;33504;52.066;6.096;2023-05-21T05:26:52;101747.73;;;17.36;42.61
47742;BME280;33504;52.066;6.096;2023-05-21T05:29:19;101750.47;;;17.45;42.40
47742;BME280;33504;52.066;6.096;2023-05-21T05:31:45;101749.07;;;17.24;42.65
47742;BME280;33504;52.066;6.096;2023-05-21T05:34:12;101744.43;;;17.47;42.61
47742;BME280;33504;52.066;6.096;2023-05-21T05:36:39;101747.34;;;17.32;42.62
47742;BME280;33504;52.066;6.096;2023-05-21T05:39:06;101745.68;;;17.58;42.53
47742;BME280;33504;52.066;6.096;2023-05-21T05:41:33;101746.84;;;17.28;42.63
47742;BME280;33504;52.066;6.096;2023-05-21T05:44:00;101744.26;;;17.58;42.73
47742;BME280;33504;52.066;6.096;2023-05-21T05:46:28;101743.98;;;17.60;42.58
47742;BME280;33504;52.066;6.096;2023-05-21T05:48:55;101744.64;;;17.66;42.65
47742;BME280;33504;52.066;6.096;2023-05-21T05:51:22;101743.77;;;17.64;42.62
47742;BME280;33504;52.066;6.096;2023-05-21T05:53:48;101743.66;;;17.74;42.40
47742;BME280;33504;52.066;6.096;2023-05-21T05:56:15;101745.80;;;17.45;42.82
47742;BME280;33504;52.066;6.096;2023-05-21T05:58:42;101741.86;;;17.67;42.52
47742;BME280;33504;52.066;6.096;2023-05-21T06:01:09;101743.52;;;17.74;42.36
47742;BME280;33504;52.066;6.096;2023-05-21T06:03:36;101742.35;;;17.75;42.40
47742;BME280;33504;52.066;6.096;2023-05-21T06:06:03;101740.56;;;17.60;42.26
47742;BME280;33504;52.066;6.096;2023-05-21T06:08:30;101744.92;;;17.61;42.31
47742;BME280;33504;52.066;6.096;2023-05-21T06:10:57;101749.58;;;17.74;42.18
47742;BME280;33504;52.066;6.096;2023-05-21T06:13:24;101751.49;;;17.92;42.50
47742;BME280;33504;52.066;6.096;2023-05-21T06:15:51;101748.55;;;18.00;42.18
47742;BME280;33504;52.066;6.096;2023-05-21T06:18:19;101747.20;;;18.16;42.08
47742;BME280;33504;52.066;6.096;2023-05-21T06:20:46;101745.85;;;17.95;42.16
47742;BME280;33504;52.066;6.096;2023-05-21T06:23:18;101742.12;;;17.85;41.99
47742;BME280;33504;52.066;6.096;2023-05-21T06:25:46;101738.60;;;18.26;41.90
47742;BME280;33504;52.066;6.096;2023-05-21T06:28:12;101735.17;;;18.05;41.84
47742;BME280;33504;52.066;6.096;2023-05-21T06:30:40;101738.80;;;18.14;41.87
47742;BME280;33504;52.066;6.096;2023-05-21T06:33:06;101741.45;;;18.12;41.93
47742;BME280;33504;52.066;6.096;2023-05-21T06:35:33;101745.61;;;18.01;42.16
47742;BME280;33504;52.066;6.096;2023-05-21T06:38:00;101742.16;;;18.43;42.13
47742;BME280;33504;52.066;6.096;2023-05-21T06:40:27;101744.25;;;18.30;42.01
47742;BME280;33504;52.066;6.096;2023-05-21T06:42:54;101747.40;;;18.78;41.25
47742;BME280;33504;52.066;6.096;2023-05-21T06:45:22;101748.33;;;18.73;41.08
47742;BME280;33504;52.066;6.096;2023-05-21T06:47:49;101744.31;;;18.97;40.70
47742;BME280;33504;52.066;6.096;2023-05-21T06:50:16;101740.16;;;19.39;40.60
47742;BME280;33504;52.066;6.096;2023-05-21T06:52:43;101734.56;;;19.43;40.48
47742;BME280;33504;52.066;6.096;2023-05-21T06:55:11;101734.65;;;19.27;40.29
47742;BME280;33504;52.066;6.096;2023-05-21T06:57:38;101734.38;;;19.26;40.23
47742;BME280;33504;52.066;6.096;2023-05-21T07:00:06;101734.48;;;19.29;40.09
47742;BME280;33504;52.066;6.096;2023-05-21T07:02:33;101735.04;;;19.24;40.34
47742;BME280;33504;52.066;6.096;2023-05-21T07:05:00;101736.29;;;19.28;40.27
47742;BME280;33504;52.066;6.096;2023-05-21T07:07:27;101735.34;;;19.25;40.08
47742;BME280;33504;52.066;6.096;2023-05-21T07:09:53;101729.65;;;19.36;39.94
47742;BME280;33504;52.066;6.096;2023-05-21T07:12:20;101728.44;;;19.08;40.24
47742;BME280;33504;52.066;6.096;2023-05-21T07:14:47;101728.75;;;19.43;39.85
47742;BME280;33504;52.066;6.096;2023-05-21T07:17:14;101724.96;;;19.55;39.76
47742;BME280;33504;52.066;6.096;2023-05-21T07:19:42;101719.18;;;19.51;39.72
47742;BME280;33504;52.066;6.096;2023-05-21T07:22:09;101717.09;;;19.73;39.54
47742;BME280;33504;52.066;6.096;2023-05-21T07:24:35;101713.61;;;19.91;39.58
47742;BME280;33504;52.066;6.096;2023-05-21T07:27:03;101714.06;;;20.23;39.51
47742;BME280;33504;52.066;6.096;2023-05-21T07:29:32;101711.83;;;20.44;38.89
47742;BME280;33504;52.066;6.096;2023-05-21T07:31:59;101710.06;;;20.66;38.72
47742;BME280;33504;52.066;6.096;2023-05-21T07:34:26;101712.40;;;20.79;38.41
47742;BME280;33504;52.066;6.096;2023-05-21T07:36:53;101711.53;;;20.61;38.12
47742;BME280;33504;52.066;6.096;2023-05-21T07:39:20;101710.88;;;20.72;37.95
47742;BME280;33504;52.066;6.096;2023-05-21T07:41:47;101709.91;;;21.02;37.90
47742;BME280;33504;52.066;6.096;2023-05-21T07:44:14;101709.21;;;20.83;38.03
47742;BME280;33504;52.066;6.096;2023-05-21T07:46:41;101708.15;;;20.93;37.93
47742;BME280;33504;52.066;6.096;2023-05-21T07:49:08;101707.28;;;21.25;37.12
47742;BME280;33504;52.066;6.096;2023-05-21T07:51:35;101707.33;;;21.11;37.38
47742;BME280;33504;52.066;6.096;2023-05-21T07:54:02;101710.73;;;21.38;37.47
47742;BME280;33504;52.066;6.096;2023-05-21T07:56:29;101711.69;;;21.47;37.22
47742;BME280;33504;52.066;6.096;2023-05-21T07:58:56;101707.33;;;21.70;37.08
47742;BME280;33504;52.066;6.096;2023-05-21T08:01:23;101711.52;;;21.68;36.91
47742;BME280;33504;52.066;6.096;2023-05-21T08:03:51;101706.04;;;21.53;36.78
47742;BME280;33504;52.066;6.096;2023-05-21T08:06:18;101703.10;;;21.90;36.87
47742;BME280;33504;52.066;6.096;2023-05-21T08:08:45;101701.73;;;22.16;36.68
47742;BME280;33504;52.066;6.096;2023-05-21T08:11:12;101696.43;;;21.86;35.91
47742;BME280;33504;52.066;6.096;2023-05-21T08:13:39;101696.01;;;21.67;36.37
47742;BME280;33504;52.066;6.096;2023-05-21T08:16:07;101695.93;;;21.92;36.16
47742;BME280;33504;52.066;6.096;2023-05-21T08:18:34;101693.46;;;22.08;35.99
47742;BME280;33504;52.066;6.096;2023-05-21T08:21:01;101692.26;;;22.09;35.82
47742;BME280;33504;52.066;6.096;2023-05-21T08:23:28;101689.95;;;22.70;35.90
47742;BME280;33504;52.066;6.096;2023-05-21T08:25:55;101691.33;;;22.32;35.90
47742;BME280;33504;52.066;6.096;2023-05-21T08:28:22;101689.33;;;22.46;36.14
47742;BME280;33504;52.066;6.096;2023-05-21T08:30:49;101691.16;;;22.39;35.64
47742;BME280;33504;52.066;6.096;2023-05-21T08:33:16;101695.16;;;22.45;35.53
47742;BME280;33504;52.066;6.096;2023-05-21T08:35:43;101690.52;;;22.68;35.49
47742;BME280;33504;52.066;6.096;2023-05-21T08:38:10;101694.99;;;22.92;35.47
47742;BME280;33504;52.066;6.096;2023-05-21T08:40:37;101692.28;;;22.53;35.81
47742;BME280;33504;52.066;6.096;2023-05-21T08:43:05;101691.71;;;22.30;35.80
47742;BME280;33504;52.066;6.096;2023-05-21T08:45:33;101692.10;;;22.32;35.17
47742;BME280;33504;52.066;6.096;2023-05-21T08:48:00;101696.15;;;22.96;34.58
47742;BME280;33504;52.066;6.096;2023-05-21T08:50:28;101691.65;;;23.01;34.67
47742;BME280;33504;52.066;6.096;2023-05-21T08:52:57;101691.52;;;22.91;34.82
47742;BME280;33504;52.066;6.096;2023-05-21T08:55:24;101695.41;;;23.02;35.17
47742;BME280;33504;52.066;6.096;2023-05-21T08:57:53;101691.39;;;23.34;34.48
47742;BME280;33504;52.066;6.096;2023-05-21T09:00:20;101692.17;;;23.40;34.55
47742;BME280;33504;52.066;6.096;2023-05-21T09:02:47;101690.19;;;23.42;34.42
47742;BME280;33504;52.066;6.096;2023-05-21T09:05:15;101690.17;;;23.46;34.48
47742;BME280;33504;52.066;6.096;2023-05-21T09:07:47;101684.87;;;23.99;33.92
47742;BME280;33504;52.066;6.096;2023-05-21T09:10:17;101684.16;;;24.05;33.74
47742;BME280;33504;52.066;6.096;2023-05-21T09:12:47;101681.50;;;23.87;33.56
47742;BME280;33504;52.066;6.096;2023-05-21T09:15:14;101681.04;;;23.84;33.65
47742;BME280;33504;52.066;6.096;2023-05-21T09:17:45;101681.21;;;24.28;33.39
47742;BME280;33504;52.066;6.096;2023-05-21T09:20:14;101676.27;;;23.95;33.39
47742;BME280;33504;52.066;6.096;2023-05-21T09:22:41;101676.88;;;23.85;33.41
47742;BME280;33504;52.066;6.096;2023-05-21T09:25:09;101674.65;;;24.35;33.43
47742;BME280;33504;52.066;6.096;2023-05-21T09:27:38;101676.71;;;24.49;33.37
47742;BME280;33504;52.066;6.096;2023-05-21T09:30:09;101675.79;;;24.33;33.27
47742;BME280;33504;52.066;6.096;2023-05-21T09:32:37;101676.23;;;24.59;32.86
47742;BME280;33504;52.066;6.096;2023-05-21T09:35:06;101672.75;;;24.65;32.75
47742;BME280;33504;52.066;6.096;2023-05-21T09:37:36;101681.37;;;24.55;32.72
47742;BME280;33504;52.066;6.096;2023-05-21T09:40:09;101675.87;;;24.44;33.04
47742;BME280;33504;52.066;6.096;2023-05-21T09:42:38;101681.89;;;25.19;32.69
47742;BME280;33504;52.066;6.096;2023-05-21T09:45:06;101678.23;;;25.24;32.65
47742;BME280;33504;52.066;6.096;2023-05-21T09:47:33;101667.30;;;24.82;32.53
47742;BME280;33504;52.066;6.096;2023-05-21T09:49:59;101669.50;;;25.22;32.11
47742;BME280;33504;52.066;6.096;2023-05-21T09:52:26;101667.64;;;25.48;31.92
47742;BME280;33504;52.066;6.096;2023-05-21T09:54:54;101666.26;;;25.47;31.44
47742;BME280;33504;52.066;6.096;2023-05-21T09:57:23;101664.98;;;25.79;31.38
47742;BME280;33504;52.066;6.096;2023-05-21T09:59:50;101660.59;;;25.52;31.60
47742;BME280;33504;52.066;6.096;2023-05-21T10:02:20;101660.07;;;26.05;31.05
47742;BME280;33504;52.066;6.096;2023-05-21T10:04:48;101659.00;;;26.25;31.10
47742;BME280;33504;52.066;6.096;2023-05-21T10:07:18;101657.15;;;26.11;30.83
47742;BME280;33504;52.066;6.096;2023-05-21T10:09:46;101655.08;;;26.36;30.73
47742;BME280;33504;52.066;6.096;2023-05-21T10:12:15;101650.85;;;26.25;30.53
47742;BME280;33504;52.066;6.096;2023-05-21T10:14:47;101643.36;;;26.29;30.06
47742;BME280;33504;52.066;6.096;2023-05-21T10:17:17;101640.75;;;26.62;30.63
47742;BME280;33504;52.066;6.096;2023-05-21T10:19:45;101635.84;;;26.93;29.82
47742;BME280;33504;52.066;6.096;2023-05-21T10:22:13;101636.66;;;26.58;30.29
47742;BME280;33504;52.066;6.096;2023-05-21T10:24:41;101636.62;;;26.23;30.25
47742;BME280;33504;52.066;6.096;2023-05-21T10:27:09;101635.56;;;26.11;30.67
47742;BME280;33504;52.066;6.096;2023-05-21T10:29:37;101636.63;;;26.56;30.57
47742;BME280;33504;52.066;6.096;2023-05-21T10:32:07;101636.57;;;27.29;30.26
47742;BME280;33504;52.066;6.096;2023-05-21T10:34:36;101637.12;;;27.04;29.64
47742;BME280;33504;52.066;6.096;2023-05-21T10:37:07;101633.57;;;27.51;29.72
47742;BME280;33504;52.066;6.096;2023-05-21T10:39:34;101629.81;;;27.33;29.83
47742;BME280;33504;52.066;6.096;2023-05-21T10:42:11;101622.46;;;27.79;29.18
47742;BME280;33504;52.066;6.096;2023-05-21T10:44:53;101616.07;;;28.16;28.97
47742;BME280;33504;52.066;6.096;2023-05-21T10:47:42;101615.36;;;28.04;28.12
47742;BME280;33504;52.066;6.096;2023-05-21T10:50:27;101611.86;;;28.04;28.90
47742;BME280;33504;52.066;6.096;2023-05-21T10:53:07;101610.74;;;28.37;28.29
47742;BME280;33504;52.066;6.096;2023-05-21T10:55:50;101609.29;;;28.72;27.86
47742;BME280;33504;52.066;6.096;2023-05-21T10:58:36;101610.07;;;28.00;27.85
47742;BME280;33504;52.066;6.096;2023-05-21T11:01:07;101607.28;;;27.68;28.18
47742;BME280;33504;52.066;6.096;2023-05-21T11:03:35;101611.03;;;28.00;28.55
47742;BME280;33504;52.066;6.096;2023-05-21T11:06:03;101610.43;;;28.71;27.63
47742;BME280;33504;52.066;6.096;2023-05-21T11:08:35;101600.41;;;28.50;27.78
47742;BME280;33504;52.066;6.096;2023-05-21T11:11:03;101602.49;;;28.51;27.06
47742;BME280;33504;52.066;6.096;2023-05-21T11:13:45;101601.94;;;28.79;27.92
47742;BME280;33504;52.066;6.096;2023-05-21T11:16:14;101603.32;;;28.66;27.24
47742;BME280;33504;52.066;6.096;2023-05-21T11:18:58;101603.25;;;28.65;28.05
47742;BME280;33504;52.066;6.096;2023-05-21T11:21:28;101605.57;;;29.00;27.47
47742;BME280;33504;52.066;6.096;2023-05-21T11:23:59;101604.48;;;29.40;26.96
47742;BME280;33504;52.066;6.096;2023-05-21T11:26:28;101602.44;;;28.53;27.42
47742;BME280;33504;52.066;6.096;2023-05-21T11:29:16;101597.90;;;29.54;26.94
47742;BME280;33504;52.066;6.096;2023-05-21T11:31:45;101590.66;;;29.35;26.71
47742;BME280;33504;52.066;6.096;2023-05-21T11:34:11;101592.27;;;29.34;27.04
47742;BME280;33504;52.066;6.096;2023-05-21T11:36:39;101591.75;;;29.29;27.32
47742;BME280;33504;52.066;6.096;2023-05-21T11:39:08;101589.41;;;28.96;27.26
47742;BME280;33504;52.066;6.096;2023-05-21T11:41:49;101580.55;;;28.73;27.37
47742;BME280;33504;52.066;6.096;2023-05-21T11:44:16;101584.83;;;29.03;27.21
47742;BME280;33504;52.066;6.096;2023-05-21T11:46:43;101578.08;;;29.59;27.26
47742;BME280;33504;52.066;6.096;2023-05-21T11:49:12;101577.98;;;29.82;26.86
47742;BME280;33504;52.066;6.096;2023-05-21T11:51:40;101578.73;;;29.67;27.01
47742;BME280;33504;52.066;6.096;2023-05-21T11:54:09;101580.09;;;29.59;26.40
47742;BME280;33504;52.066;6.096;2023-05-21T11:56:37;101575.50;;;29.11;26.61
47742;BME280;33504;52.066;6.096;2023-05-21T11:59:12;101572.58;;;29.29;26.73
47742;BME280;33504;52.066;6.096;2023-05-21T12:01:41;101576.22;;;29.23;26.68
47742;BME280;33504;52.066;6.096;2023-05-21T12:04:09;101575.93;;;29.16;26.54
47742;BME280;33504;52.066;6.096;2023-05-21T12:06:35;101570.45;;;29.67;26.31
47742;BME280;33504;52.066;6.096;2023-05-21T12:09:03;101573.88;;;29.69;26.45
47742;BME280;33504;52.066;6.096;2023-05-21T12:11:30;101565.38;;;29.53;26.31
47742;BME280;33504;52.066;6.096;2023-05-21T12:13:57;101557.50;;;29.72;26.64
47742;BME280;33504;52.066;6.096;2023-05-21T12:16:24;101560.95;;;30.02;26.45
47742;BME280;33504;52.066;6.096;2023-05-21T12:18:51;101552.37;;;30.11;26.35
47742;BME280;33504;52.066;6.096;2023-05-21T12:21:18;101557.46;;;30.45;26.40
47742;BME280;33504;52.066;6.096;2023-05-21T12:23:45;101556.03;;;29.90;26.64
47742;BME280;33504;52.066;6.096;2023-05-21T12:26:13;101556.31;;;29.06;27.19
47742;BME280;33504;52.066;6.096;2023-05-21T12:28:40;101552.19;;;30.06;26.72
47742;BME280;33504;52.066;6.096;2023-05-21T12:31:13;101552.72;;;29.77;26.73
47742;BME280;33504;52.066;6.096;2023-05-21T12:33:43;101550.05;;;29.99;26.39
47742;BME280;33504;52.066;6.096;2023-05-21T12:36:10;101546.49;;;30.38;26.40
47742;BME280;33504;52.066;6.096;2023-05-21T12:38:36;101542.43;;;30.08;26.92
47742;BME280;33504;52.066;6.096;2023-05-21T12:41:04;101545.28;;;30.67;26.72
47742;BME280;33504;52.066;6.096;2023-05-21T12:43:31;101541.20;;;29.94;25.83
47742;BME280;33504;52.066;6.096;2023-05-21T12:45:58;101537.73;;;30.36;26.45
47742;BME280;33504;52.066;6.096;2023-05-21T12:48:25;101529.32;;;30.17;26.23
47742;BME280;33504;52.066;6.096;2023-05-21T12:50:52;101527.43;;;30.21;26.42
47742;BME280;33504;52.066;6.096;2023-05-21T12:53:19;101525.13;;;30.56;26.19
47742;BME280;33504;52.066;6.096;2023-05-21T12:55:46;101526.24;;;30.88;25.62